New Orleans, LA

7:39 AM CDT on August 27, 2016 (GMT -0500)
Downtown CBD New Orleans | | Change Station

Elev 28 ft 29.94 °N, 90.07 °W | Updated 19 seconds ago

Clear
Clear
80.6 °F
Feels Like 85 °F
N
9.6
Wind Variable Wind from NNW
Gusts 12.3 mph

Today
High -- | Low -- °F
--% Chance of Precip.
Yesterday
High -- | Low -- °F
Precip. -- in
Pressure 29.95 in
Visibility 10.0 miles
Clouds Clear
Heat Index 85 °F
Dew Point 72 °F
Humidity 74%
Rainfall 0.00 in
Snow Depth Not available.
6:34 AM 7:27 PM
Waning Crescent, 25% visible
METAR KNEW 271153Z AUTO 07015KT 10SM CLR 28/24 A2996 RMK AO2 SLP140 T02780239 10283 20272 53002
Pressure 29.95 in
Visibility 10.0 miles
Clouds Clear
Heat Index 85 °F
Dew Point 72 °F
Humidity 74%
Rainfall 0.00 in
Snow Depth Not available.
6:34 AM 7:27 PM
Waning Crescent, 25% visible
METAR KNEW 271153Z AUTO 07015KT 10SM CLR 28/24 A2996 RMK AO2 SLP140 T02780239 10283 20272 53002

10-Day Weather Forecast

Almanac

Astronomy

Aug. 27, 2016 Rise Set
Actual Time
Civil Twilight
Nautical Twilight
Astronomical Twilight
Moon
Length of Visible Light
Length of Day
Tomorrow will be .
, % of the Moon is Illuminated

Today's Extremes

State Highs State Lows

Community

WunderPhotos

Upload Photos

1,935,325 photos uploaded!

WunderBlog® & News

Nearby

Air Quality

  Air Quality AQ Index Pollutant
Not available.

Snow Depth

Station Depth Elevation

Earthquake Activity

City Distance Mag. Time & Date
Minimum magnitude displayed is 2.5.

Coastal Water Temperatures

Place Temperature

Stations

Nearby Weather Stations

Station Location Temp. Windchill Dew Point Humidity Wind Precip. Elev Updated Type
                   

Watches & Warnings

There are currently no watches in effect.